sensor_id;sensor_type;location;lat;lon;timestamp;P1;durP1;ratioP1;P2;durP2;ratioP2
34988;SDS011;21192;40.182;44.516;2024-02-16T00:00:06;17.30;;;10.85;;
34988;SDS011;21192;40.182;44.516;2024-02-16T00:02:32;18.75;;;11.13;;
34988;SDS011;21192;40.182;44.516;2024-02-16T00:04:58;22.95;;;11.73;;
34988;SDS011;21192;40.182;44.516;2024-02-16T00:07:24;18.95;;;11.50;;
34988;SDS011;21192;40.182;44.516;2024-02-16T00:09:50;27.23;;;14.13;;
34988;SDS011;21192;40.182;44.516;2024-02-16T00:12:16;22.20;;;12.85;;
34988;SDS011;21192;40.182;44.516;2024-02-16T00:14:42;28.98;;;14.68;;
34988;SDS011;21192;40.182;44.516;2024-02-16T00:17:11;29.52;;;13.27;;
34988;SDS011;21192;40.182;44.516;2024-02-16T00:19:37;24.35;;;14.20;;
34988;SDS011;21192;40.182;44.516;2024-02-16T00:22:02;23.08;;;13.30;;
34988;SDS011;21192;40.182;44.516;2024-02-16T00:24:28;18.08;;;11.52;;
34988;SDS011;21192;40.182;44.516;2024-02-16T00:26:56;21.65;;;13.30;;
34988;SDS011;21192;40.182;44.516;2024-02-16T00:29:22;26.42;;;14.35;;
34988;SDS011;21192;40.182;44.516;2024-02-16T00:31:48;21.70;;;13.23;;
34988;SDS011;21192;40.182;44.516;2024-02-16T00:34:14;30.38;;;14.48;;
34988;SDS011;21192;40.182;44.516;2024-02-16T00:36:40;24.60;;;14.27;;
34988;SDS011;21192;40.182;44.516;2024-02-16T00:39:06;21.95;;;13.73;;
34988;SDS011;21192;40.182;44.516;2024-02-16T00:41:32;18.75;;;13.02;;
34988;SDS011;21192;40.182;44.516;2024-02-16T00:43:57;23.02;;;12.52;;
34988;SDS011;21192;40.182;44.516;2024-02-16T00:46:23;25.42;;;12.95;;
34988;SDS011;21192;40.182;44.516;2024-02-16T00:48:50;22.77;;;14.75;;
34988;SDS011;21192;40.182;44.516;2024-02-16T00:51:17;23.35;;;13.23;;
34988;SDS011;21192;40.182;44.516;2024-02-16T00:53:43;22.73;;;12.40;;
34988;SDS011;21192;40.182;44.516;2024-02-16T00:56:09;21.67;;;12.45;;
34988;SDS011;21192;40.182;44.516;2024-02-16T00:58:36;22.77;;;11.65;;
34988;SDS011;21192;40.182;44.516;2024-02-16T01:01:04;20.63;;;12.25;;
34988;SDS011;21192;40.182;44.516;2024-02-16T01:03:35;18.15;;;10.65;;
34988;SDS011;21192;40.182;44.516;2024-02-16T01:06:03;24.48;;;12.85;;
34988;SDS011;21192;40.182;44.516;2024-02-16T01:08:30;22.58;;;12.70;;
34988;SDS011;21192;40.182;44.516;2024-02-16T01:10:56;23.52;;;12.05;;
34988;SDS011;21192;40.182;44.516;2024-02-16T01:13:22;19.20;;;12.57;;
34988;SDS011;21192;40.182;44.516;2024-02-16T01:15:48;21.40;;;12.00;;
34988;SDS011;21192;40.182;44.516;2024-02-16T01:18:14;22.75;;;12.98;;
34988;SDS011;21192;40.182;44.516;2024-02-16T01:20:40;24.92;;;15.23;;
34988;SDS011;21192;40.182;44.516;2024-02-16T01:23:06;28.35;;;14.85;;
34988;SDS011;21192;40.182;44.516;2024-02-16T01:25:32;28.83;;;14.95;;
34988;SDS011;21192;40.182;44.516;2024-02-16T01:27:58;26.83;;;13.48;;
34988;SDS011;21192;40.182;44.516;2024-02-16T01:30:24;24.90;;;13.57;;
34988;SDS011;21192;40.182;44.516;2024-02-16T01:32:50;24.55;;;12.82;;
34988;SDS011;21192;40.182;44.516;2024-02-16T01:35:16;22.20;;;13.10;;
34988;SDS011;21192;40.182;44.516;2024-02-16T01:37:42;23.70;;;12.93;;
34988;SDS011;21192;40.182;44.516;2024-02-16T01:40:09;22.77;;;12.93;;
34988;SDS011;21192;40.182;44.516;2024-02-16T01:42:44;19.95;;;12.20;;
34988;SDS011;21192;40.182;44.516;2024-02-16T01:45:12;20.98;;;12.10;;
34988;SDS011;21192;40.182;44.516;2024-02-16T01:47:38;24.45;;;13.38;;
34988;SDS011;21192;40.182;44.516;2024-02-16T01:50:07;23.73;;;13.57;;
34988;SDS011;21192;40.182;44.516;2024-02-16T01:52:34;27.40;;;14.82;;
34988;SDS011;21192;40.182;44.516;2024-02-16T01:55:03;21.65;;;13.05;;
34988;SDS011;21192;40.182;44.516;2024-02-16T01:57:30;25.08;;;13.77;;
34988;SDS011;21192;40.182;44.516;2024-02-16T01:59:57;27.05;;;15.13;;
34988;SDS011;21192;40.182;44.516;2024-02-16T02:02:23;25.25;;;13.65;;
34988;SDS011;21192;40.182;44.516;2024-02-16T02:04:49;20.58;;;13.98;;
34988;SDS011;21192;40.182;44.516;2024-02-16T02:07:15;25.73;;;13.70;;
34988;SDS011;21192;40.182;44.516;2024-02-16T02:09:41;23.80;;;13.57;;
34988;SDS011;21192;40.182;44.516;2024-02-16T02:12:08;23.88;;;14.02;;
34988;SDS011;21192;40.182;44.516;2024-02-16T02:14:35;23.83;;;14.23;;
34988;SDS011;21192;40.182;44.516;2024-02-16T02:17:02;22.77;;;13.45;;
34988;SDS011;21192;40.182;44.516;2024-02-16T02:19:31;25.23;;;14.07;;
34988;SDS011;21192;40.182;44.516;2024-02-16T02:21:57;28.42;;;15.45;;
34988;SDS011;21192;40.182;44.516;2024-02-16T02:24:23;25.70;;;14.02;;
34988;SDS011;21192;40.182;44.516;2024-02-16T02:26:49;23.58;;;13.93;;
34988;SDS011;21192;40.182;44.516;2024-02-16T02:29:15;25.77;;;13.45;;
34988;SDS011;21192;40.182;44.516;2024-02-16T02:31:41;22.75;;;13.43;;
34988;SDS011;21192;40.182;44.516;2024-02-16T02:34:07;22.98;;;13.88;;
34988;SDS011;21192;40.182;44.516;2024-02-16T02:36:32;21.77;;;12.80;;
34988;SDS011;21192;40.182;44.516;2024-02-16T02:38:58;25.42;;;13.57;;
34988;SDS011;21192;40.182;44.516;2024-02-16T02:41:24;25.80;;;13.32;;
34988;SDS011;21192;40.182;44.516;2024-02-16T02:43:50;24.90;;;13.63;;
34988;SDS011;21192;40.182;44.516;2024-02-16T02:46:17;23.35;;;13.32;;
34988;SDS011;21192;40.182;44.516;2024-02-16T02:48:44;20.88;;;12.15;;
34988;SDS011;21192;40.182;44.516;2024-02-16T02:51:10;21.75;;;12.88;;
34988;SDS011;21192;40.182;44.516;2024-02-16T02:53:36;21.95;;;12.05;;
34988;SDS011;21192;40.182;44.516;2024-02-16T02:56:03;27.27;;;13.32;;
34988;SDS011;21192;40.182;44.516;2024-02-16T02:58:29;21.60;;;12.18;;
34988;SDS011;21192;40.182;44.516;2024-02-16T03:00:55;24.60;;;13.27;;
34988;SDS011;21192;40.182;44.516;2024-02-16T03:03:22;22.17;;;13.23;;
34988;SDS011;21192;40.182;44.516;2024-02-16T03:05:49;23.17;;;13.25;;
34988;SDS011;21192;40.182;44.516;2024-02-16T03:08:15;22.27;;;13.15;;
34988;SDS011;21192;40.182;44.516;2024-02-16T03:10:41;23.77;;;12.93;;
34988;SDS011;21192;40.182;44.516;2024-02-16T03:13:09;21.67;;;12.98;;
34988;SDS011;21192;40.182;44.516;2024-02-16T03:15:37;26.48;;;13.32;;
34988;SDS011;21192;40.182;44.516;2024-02-16T03:18:04;24.75;;;13.82;;
34988;SDS011;21192;40.182;44.516;2024-02-16T03:20:34;25.15;;;13.35;;
34988;SDS011;21192;40.182;44.516;2024-02-16T03:23:00;20.90;;;13.35;;
34988;SDS011;21192;40.182;44.516;2024-02-16T03:25:26;29.35;;;13.82;;
34988;SDS011;21192;40.182;44.516;2024-02-16T03:27:52;22.15;;;13.07;;
34988;SDS011;21192;40.182;44.516;2024-02-16T03:30:18;23.98;;;13.88;;
34988;SDS011;21192;40.182;44.516;2024-02-16T03:32:50;23.40;;;14.00;;
34988;SDS011;21192;40.182;44.516;2024-02-16T03:35:17;28.10;;;13.77;;
34988;SDS011;21192;40.182;44.516;2024-02-16T03:37:44;27.02;;;14.70;;
34988;SDS011;21192;40.182;44.516;2024-02-16T03:40:10;36.45;;;15.98;;
34988;SDS011;21192;40.182;44.516;2024-02-16T03:42:38;25.55;;;14.93;;
34988;SDS011;21192;40.182;44.516;2024-02-16T03:45:06;26.85;;;14.15;;
34988;SDS011;21192;40.182;44.516;2024-02-16T03:47:32;26.83;;;15.10;;
34988;SDS011;21192;40.182;44.516;2024-02-16T03:49:58;29.35;;;15.73;;
34988;SDS011;21192;40.182;44.516;2024-02-16T03:52:24;29.40;;;16.27;;
34988;SDS011;21192;40.182;44.516;2024-02-16T03:54:50;28.98;;;14.98;;
34988;SDS011;21192;40.182;44.516;2024-02-16T03:57:16;28.80;;;17.23;;
34988;SDS011;21192;40.182;44.516;2024-02-16T03:59:43;30.73;;;17.08;;
34988;SDS011;21192;40.182;44.516;2024-02-16T04:02:09;36.08;;;17.27;;
34988;SDS011;21192;40.182;44.516;2024-02-16T04:04:35;36.38;;;17.08;;
34988;SDS011;21192;40.182;44.516;2024-02-16T04:07:01;30.70;;;16.45;;
34988;SDS011;21192;40.182;44.516;2024-02-16T04:09:27;32.22;;;17.00;;
34988;SDS011;21192;40.182;44.516;2024-02-16T04:11:53;32.58;;;16.25;;
34988;SDS011;21192;40.182;44.516;2024-02-16T04:14:19;31.25;;;17.15;;
34988;SDS011;21192;40.182;44.516;2024-02-16T04:16:45;32.60;;;16.75;;
34988;SDS011;21192;40.182;44.516;2024-02-16T04:19:11;36.05;;;16.88;;
34988;SDS011;21192;40.182;44.516;2024-02-16T04:21:37;30.48;;;16.30;;
34988;SDS011;21192;40.182;44.516;2024-02-16T04:24:03;30.58;;;15.93;;
34988;SDS011;21192;40.182;44.516;2024-02-16T04:26:29;31.27;;;16.27;;
34988;SDS011;21192;40.182;44.516;2024-02-16T04:28:55;28.50;;;15.75;;
34988;SDS011;21192;40.182;44.516;2024-02-16T04:31:21;28.33;;;16.08;;
34988;SDS011;21192;40.182;44.516;2024-02-16T04:33:47;31.88;;;16.85;;
34988;SDS011;21192;40.182;44.516;2024-02-16T04:36:14;31.08;;;15.30;;
34988;SDS011;21192;40.182;44.516;2024-02-16T04:38:41;24.42;;;15.00;;
34988;SDS011;21192;40.182;44.516;2024-02-16T04:41:10;28.42;;;14.63;;
34988;SDS011;21192;40.182;44.516;2024-02-16T04:43:36;27.65;;;14.75;;
34988;SDS011;21192;40.182;44.516;2024-02-16T04:46:02;26.38;;;14.63;;
34988;SDS011;21192;40.182;44.516;2024-02-16T04:48:28;27.45;;;14.20;;
34988;SDS011;21192;40.182;44.516;2024-02-16T04:50:54;29.48;;;15.02;;
34988;SDS011;21192;40.182;44.516;2024-02-16T04:53:20;33.03;;;15.20;;
34988;SDS011;21192;40.182;44.516;2024-02-16T04:55:46;27.42;;;14.38;;
34988;SDS011;21192;40.182;44.516;2024-02-16T04:58:11;41.67;;;16.67;;
34988;SDS011;21192;40.182;44.516;2024-02-16T05:00:37;34.30;;;17.55;;
34988;SDS011;21192;40.182;44.516;2024-02-16T05:03:03;38.47;;;18.05;;
34988;SDS011;21192;40.182;44.516;2024-02-16T05:05:29;44.55;;;19.95;;
34988;SDS011;21192;40.182;44.516;2024-02-16T05:07:58;40.13;;;18.80;;
34988;SDS011;21192;40.182;44.516;2024-02-16T05:10:25;35.03;;;18.90;;
34988;SDS011;21192;40.182;44.516;2024-02-16T05:12:51;39.78;;;18.10;;
34988;SDS011;21192;40.182;44.516;2024-02-16T05:15:16;38.03;;;18.40;;
34988;SDS011;21192;40.182;44.516;2024-02-16T05:17:42;41.28;;;19.33;;
34988;SDS011;21192;40.182;44.516;2024-02-16T05:20:13;36.75;;;16.88;;
34988;SDS011;21192;40.182;44.516;2024-02-16T05:22:46;40.30;;;17.88;;
34988;SDS011;21192;40.182;44.516;2024-02-16T05:25:14;46.38;;;19.98;;
34988;SDS011;21192;40.182;44.516;2024-02-16T05:27:41;41.08;;;21.15;;
34988;SDS011;21192;40.182;44.516;2024-02-16T05:30:09;41.13;;;20.08;;
34988;SDS011;21192;40.182;44.516;2024-02-16T05:32:37;41.40;;;19.95;;
34988;SDS011;21192;40.182;44.516;2024-02-16T05:35:04;35.92;;;18.80;;
34988;SDS011;21192;40.182;44.516;2024-02-16T05:37:42;36.10;;;19.27;;
34988;SDS011;21192;40.182;44.516;2024-02-16T05:40:14;37.05;;;20.63;;
34988;SDS011;21192;40.182;44.516;2024-02-16T05:42:52;40.17;;;21.65;;
34988;SDS011;21192;40.182;44.516;2024-02-16T05:45:18;40.92;;;22.45;;
34988;SDS011;21192;40.182;44.516;2024-02-16T05:47:48;42.65;;;21.02;;
34988;SDS011;21192;40.182;44.516;2024-02-16T05:50:14;41.92;;;20.65;;
34988;SDS011;21192;40.182;44.516;2024-02-16T05:52:41;45.65;;;21.52;;
34988;SDS011;21192;40.182;44.516;2024-02-16T05:55:08;38.30;;;20.15;;
34988;SDS011;21192;40.182;44.516;2024-02-16T05:57:34;39.22;;;19.75;;
34988;SDS011;21192;40.182;44.516;2024-02-16T06:00:01;38.42;;;18.70;;
34988;SDS011;21192;40.182;44.516;2024-02-16T06:02:31;41.20;;;19.30;;
34988;SDS011;21192;40.182;44.516;2024-02-16T06:05:00;36.20;;;18.75;;
34988;SDS011;21192;40.182;44.516;2024-02-16T06:07:28;36.92;;;18.10;;
34988;SDS011;21192;40.182;44.516;2024-02-16T06:09:54;37.60;;;17.63;;
34988;SDS011;21192;40.182;44.516;2024-02-16T06:12:21;35.25;;;19.95;;
34988;SDS011;21192;40.182;44.516;2024-02-16T06:14:47;42.78;;;18.75;;
34988;SDS011;21192;40.182;44.516;2024-02-16T06:17:17;39.53;;;19.45;;
34988;SDS011;21192;40.182;44.516;2024-02-16T06:19:43;48.58;;;20.13;;
34988;SDS011;21192;40.182;44.516;2024-02-16T06:22:09;44.13;;;17.58;;
34988;SDS011;21192;40.182;44.516;2024-02-16T06:24:35;31.30;;;15.48;;
34988;SDS011;21192;40.182;44.516;2024-02-16T06:27:02;23.50;;;13.07;;
34988;SDS011;21192;40.182;44.516;2024-02-16T06:29:28;30.27;;;14.18;;
34988;SDS011;21192;40.182;44.516;2024-02-16T06:31:55;30.52;;;15.50;;
34988;SDS011;21192;40.182;44.516;2024-02-16T06:34:22;38.30;;;17.42;;
34988;SDS011;21192;40.182;44.516;2024-02-16T06:36:48;32.53;;;15.80;;
34988;SDS011;21192;40.182;44.516;2024-02-16T06:39:15;38.30;;;17.40;;
34988;SDS011;21192;40.182;44.516;2024-02-16T06:41:45;44.05;;;23.63;;
34988;SDS011;21192;40.182;44.516;2024-02-16T06:44:12;48.30;;;23.80;;
34988;SDS011;21192;40.182;44.516;2024-02-16T06:46:38;57.63;;;25.25;;
34988;SDS011;21192;40.182;44.516;2024-02-16T06:49:04;51.70;;;24.50;;
34988;SDS011;21192;40.182;44.516;2024-02-16T06:51:30;55.75;;;24.45;;
34988;SDS011;21192;40.182;44.516;2024-02-16T06:53:56;52.30;;;23.85;;
34988;SDS011;21192;40.182;44.516;2024-02-16T06:56:22;56.95;;;25.33;;
34988;SDS011;21192;40.182;44.516;2024-02-16T06:58:49;49.22;;;25.67;;
34988;SDS011;21192;40.182;44.516;2024-02-16T07:01:15;51.00;;;24.27;;
34988;SDS011;21192;40.182;44.516;2024-02-16T07:03:43;44.33;;;24.20;;
34988;SDS011;21192;40.182;44.516;2024-02-16T07:06:09;46.50;;;22.15;;
34988;SDS011;21192;40.182;44.516;2024-02-16T07:08:41;47.78;;;23.08;;
34988;SDS011;21192;40.182;44.516;2024-02-16T07:11:08;40.17;;;21.75;;
34988;SDS011;21192;40.182;44.516;2024-02-16T07:13:41;45.85;;;21.25;;
34988;SDS011;21192;40.182;44.516;2024-02-16T07:16:10;43.15;;;21.02;;
34988;SDS011;21192;40.182;44.516;2024-02-16T07:18:36;49.78;;;22.00;;
34988;SDS011;21192;40.182;44.516;2024-02-16T07:21:02;42.17;;;23.55;;
34988;SDS011;21192;40.182;44.516;2024-02-16T07:23:28;41.90;;;21.27;;
34988;SDS011;21192;40.182;44.516;2024-02-16T07:25:55;39.35;;;19.73;;
34988;SDS011;21192;40.182;44.516;2024-02-16T07:28:22;36.33;;;20.63;;
34988;SDS011;21192;40.182;44.516;2024-02-16T07:30:48;39.97;;;21.08;;
34988;SDS011;21192;40.182;44.516;2024-02-16T07:33:15;55.13;;;19.77;;
34988;SDS011;21192;40.182;44.516;2024-02-16T07:35:41;39.30;;;20.17;;
34988;SDS011;21192;40.182;44.516;2024-02-16T07:38:07;43.72;;;21.48;;
34988;SDS011;21192;40.182;44.516;2024-02-16T07:40:32;34.15;;;18.90;;
34988;SDS011;21192;40.182;44.516;2024-02-16T07:42:58;34.25;;;17.42;;
34988;SDS011;21192;40.182;44.516;2024-02-16T07:45:24;36.90;;;17.73;;
34988;SDS011;21192;40.182;44.516;2024-02-16T07:47:51;39.17;;;17.45;;
34988;SDS011;21192;40.182;44.516;2024-02-16T07:50:23;40.47;;;17.70;;
34988;SDS011;21192;40.182;44.516;2024-02-16T07:52:49;32.92;;;16.10;;
34988;SDS011;21192;40.182;44.516;2024-02-16T07:55:16;37.45;;;16.98;;
34988;SDS011;21192;40.182;44.516;2024-02-16T07:57:45;33.42;;;16.67;;
34988;SDS011;21192;40.182;44.516;2024-02-16T08:00:12;32.65;;;17.10;;
34988;SDS011;21192;40.182;44.516;2024-02-16T08:02:41;37.33;;;17.58;;
34988;SDS011;21192;40.182;44.516;2024-02-16T08:05:10;39.22;;;18.85;;
34988;SDS011;21192;40.182;44.516;2024-02-16T08:07:38;51.88;;;18.85;;
34988;SDS011;21192;40.182;44.516;2024-02-16T08:10:06;34.53;;;17.08;;
34988;SDS011;21192;40.182;44.516;2024-02-16T08:12:33;38.28;;;18.45;;
34988;SDS011;21192;40.182;44.516;2024-02-16T08:15:01;41.65;;;17.77;;
34988;SDS011;21192;40.182;44.516;2024-02-16T08:17:29;42.60;;;17.98;;
34988;SDS011;21192;40.182;44.516;2024-02-16T08:19:56;32.20;;;18.63;;
34988;SDS011;21192;40.182;44.516;2024-02-16T08:22:22;41.45;;;18.30;;
34988;SDS011;21192;40.182;44.516;2024-02-16T08:24:48;31.95;;;16.10;;
34988;SDS011;21192;40.182;44.516;2024-02-16T08:27:15;35.78;;;16.60;;
34988;SDS011;21192;40.182;44.516;2024-02-16T08:29:42;33.83;;;16.13;;
34988;SDS011;21192;40.182;44.516;2024-02-16T08:32:08;35.03;;;16.27;;
34988;SDS011;21192;40.182;44.516;2024-02-16T08:34:35;29.40;;;15.13;;
34988;SDS011;21192;40.182;44.516;2024-02-16T08:37:03;33.15;;;17.55;;
34988;SDS011;21192;40.182;44.516;2024-02-16T08:39:29;29.98;;;14.35;;
34988;SDS011;21192;40.182;44.516;2024-02-16T08:41:56;25.65;;;13.73;;
34988;SDS011;21192;40.182;44.516;2024-02-16T08:44:22;24.05;;;15.05;;
34988;SDS011;21192;40.182;44.516;2024-02-16T08:46:48;23.00;;;13.40;;
34988;SDS011;21192;40.182;44.516;2024-02-16T08:49:15;29.75;;;15.02;;
34988;SDS011;21192;40.182;44.516;2024-02-16T08:51:42;24.40;;;14.23;;
34988;SDS011;21192;40.182;44.516;2024-02-16T08:54:08;25.75;;;14.35;;
34988;SDS011;21192;40.182;44.516;2024-02-16T08:56:34;29.40;;;16.85;;
34988;SDS011;21192;40.182;44.516;2024-02-16T08:59:03;25.02;;;16.05;;
34988;SDS011;21192;40.182;44.516;2024-02-16T09:01:30;35.47;;;17.52;;
34988;SDS011;21192;40.182;44.516;2024-02-16T09:04:03;44.45;;;18.90;;
34988;SDS011;21192;40.182;44.516;2024-02-16T09:06:29;43.05;;;21.67;;
34988;SDS011;21192;40.182;44.516;2024-02-16T09:08:55;39.92;;;23.33;;
34988;SDS011;21192;40.182;44.516;2024-02-16T09:11:21;37.15;;;21.65;;
34988;SDS011;21192;40.182;44.516;2024-02-16T09:13:48;39.30;;;20.92;;
34988;SDS011;21192;40.182;44.516;2024-02-16T09:16:14;41.50;;;22.45;;
34988;SDS011;21192;40.182;44.516;2024-02-16T09:18:40;44.20;;;21.15;;
34988;SDS011;21192;40.182;44.516;2024-02-16T09:21:06;31.67;;;19.23;;
34988;SDS011;21192;40.182;44.516;2024-02-16T09:23:32;39.10;;;19.52;;
34988;SDS011;21192;40.182;44.516;2024-02-16T09:25:59;40.17;;;20.05;;
34988;SDS011;21192;40.182;44.516;2024-02-16T09:28:25;39.88;;;19.10;;
34988;SDS011;21192;40.182;44.516;2024-02-16T09:30:53;35.75;;;19.15;;
34988;SDS011;21192;40.182;44.516;2024-02-16T09:33:20;34.17;;;20.02;;
34988;SDS011;21192;40.182;44.516;2024-02-16T09:35:49;31.35;;;19.15;;
34988;SDS011;21192;40.182;44.516;2024-02-16T09:38:16;34.20;;;18.25;;
34988;SDS011;21192;40.182;44.516;2024-02-16T09:40:42;31.08;;;20.00;;
34988;SDS011;21192;40.182;44.516;2024-02-16T09:43:09;38.00;;;20.55;;
34988;SDS011;21192;40.182;44.516;2024-02-16T09:45:35;35.70;;;20.55;;
34988;SDS011;21192;40.182;44.516;2024-02-16T09:48:02;34.72;;;20.23;;
34988;SDS011;21192;40.182;44.516;2024-02-16T09:50:31;27.33;;;18.20;;
34988;SDS011;21192;40.182;44.516;2024-02-16T09:52:56;38.25;;;20.38;;
34988;SDS011;21192;40.182;44.516;2024-02-16T09:55:23;33.83;;;20.33;;
34988;SDS011;21192;40.182;44.516;2024-02-16T09:58:00;32.38;;;20.58;;
34988;SDS011;21192;40.182;44.516;2024-02-16T10:00:26;31.92;;;18.98;;
34988;SDS011;21192;40.182;44.516;2024-02-16T10:02:53;32.40;;;20.02;;
34988;SDS011;21192;40.182;44.516;2024-02-16T10:05:19;35.47;;;20.95;;
34988;SDS011;21192;40.182;44.516;2024-02-16T10:07:46;34.42;;;20.92;;
34988;SDS011;21192;40.182;44.516;2024-02-16T10:10:28;30.02;;;21.10;;
34988;SDS011;21192;40.182;44.516;2024-02-16T10:13:03;35.22;;;20.05;;
34988;SDS011;21192;40.182;44.516;2024-02-16T10:15:33;36.80;;;20.92;;
34988;SDS011;21192;40.182;44.516;2024-02-16T10:18:00;39.13;;;21.90;;
34988;SDS011;21192;40.182;44.516;2024-02-16T10:20:27;37.85;;;22.08;;
34988;SDS011;21192;40.182;44.516;2024-02-16T10:23:06;27.65;;;20.42;;
34988;SDS011;21192;40.182;44.516;2024-02-16T10:25:36;35.40;;;21.10;;
34988;SDS011;21192;40.182;44.516;2024-02-16T10:28:06;41.17;;;20.33;;
34988;SDS011;21192;40.182;44.516;2024-02-16T10:30:40;32.90;;;19.90;;
34988;SDS011;21192;40.182;44.516;2024-02-16T10:33:09;33.95;;;21.15;;
34988;SDS011;21192;40.182;44.516;2024-02-16T10:35:39;33.97;;;21.20;;
34988;SDS011;21192;40.182;44.516;2024-02-16T10:38:07;43.25;;;21.40;;
34988;SDS011;21192;40.182;44.516;2024-02-16T10:40:37;38.38;;;21.65;;
34988;SDS011;21192;40.182;44.516;2024-02-16T10:43:04;37.38;;;21.60;;
34988;SDS011;21192;40.182;44.516;2024-02-16T10:45:34;35.45;;;22.25;;
34988;SDS011;21192;40.182;44.516;2024-02-16T10:48:05;29.73;;;20.65;;
34988;SDS011;21192;40.182;44.516;2024-02-16T10:50:33;31.15;;;19.83;;
34988;SDS011;21192;40.182;44.516;2024-02-16T10:53:43;31.77;;;20.83;;
34988;SDS011;21192;40.182;44.516;2024-02-16T10:55:51;28.75;;;18.95;;
34988;SDS011;21192;40.182;44.516;2024-02-16T10:58:20;30.58;;;20.00;;
34988;SDS011;21192;40.182;44.516;2024-02-16T11:00:53;31.58;;;18.92;;
34988;SDS011;21192;40.182;44.516;2024-02-16T11:03:23;39.65;;;20.95;;
34988;SDS011;21192;40.182;44.516;2024-02-16T11:05:50;30.85;;;20.77;;
34988;SDS011;21192;40.182;44.516;2024-02-16T11:08:17;39.78;;;20.67;;
34988;SDS011;21192;40.182;44.516;2024-02-16T11:11:00;30.42;;;20.50;;
34988;SDS011;21192;40.182;44.516;2024-02-16T11:13:31;36.45;;;21.20;;
34988;SDS011;21192;40.182;44.516;2024-02-16T11:15:59;30.92;;;20.25;;
34988;SDS011;21192;40.182;44.516;2024-02-16T11:18:30;31.35;;;20.05;;
34988;SDS011;21192;40.182;44.516;2024-02-16T11:20:59;32.65;;;18.77;;
34988;SDS011;21192;40.182;44.516;2024-02-16T11:23:27;32.75;;;20.33;;
34988;SDS011;21192;40.182;44.516;2024-02-16T11:26:00;30.10;;;20.17;;
34988;SDS011;21192;40.182;44.516;2024-02-16T11:28:27;32.78;;;20.58;;
34988;SDS011;21192;40.182;44.516;2024-02-16T11:30:54;31.02;;;19.13;;
34988;SDS011;21192;40.182;44.516;2024-02-16T11:33:20;32.70;;;19.15;;
34988;SDS011;21192;40.182;44.516;2024-02-16T11:36:06;33.72;;;21.17;;
34988;SDS011;21192;40.182;44.516;2024-02-16T11:38:35;34.00;;;19.92;;
34988;SDS011;21192;40.182;44.516;2024-02-16T11:41:05;40.83;;;25.85;;
34988;SDS011;21192;40.182;44.516;2024-02-16T11:43:33;32.90;;;21.30;;
34988;SDS011;21192;40.182;44.516;2024-02-16T11:45:59;30.88;;;17.60;;
34988;SDS011;21192;40.182;44.516;2024-02-16T11:48:35;32.85;;;17.90;;
34988;SDS011;21192;40.182;44.516;2024-02-16T11:51:02;29.25;;;16.65;;
34988;SDS011;21192;40.182;44.516;2024-02-16T11:53:29;22.20;;;14.95;;
34988;SDS011;21192;40.182;44.516;2024-02-16T11:55:55;27.70;;;14.52;;
34988;SDS011;21192;40.182;44.516;2024-02-16T11:58:22;23.25;;;15.30;;
34988;SDS011;21192;40.182;44.516;2024-02-16T12:00:49;27.17;;;16.25;;
34988;SDS011;21192;40.182;44.516;2024-02-16T12:03:23;25.95;;;17.27;;
34988;SDS011;21192;40.182;44.516;2024-02-16T12:05:53;36.35;;;21.05;;
34988;SDS011;21192;40.182;44.516;2024-02-16T12:08:20;30.90;;;21.48;;
34988;SDS011;21192;40.182;44.516;2024-02-16T12:10:47;34.42;;;21.90;;
34988;SDS011;21192;40.182;44.516;2024-02-16T12:13:19;32.83;;;21.55;;
34988;SDS011;21192;40.182;44.516;2024-02-16T12:15:49;29.48;;;18.65;;
34988;SDS011;21192;40.182;44.516;2024-02-16T12:18:23;22.17;;;15.90;;
34988;SDS011;21192;40.182;44.516;2024-02-16T12:20:57;23.00;;;15.77;;
34988;SDS011;21192;40.182;44.516;2024-02-16T12:23:27;28.42;;;17.92;;
34988;SDS011;21192;40.182;44.516;2024-02-16T12:25:55;28.98;;;17.23;;
34988;SDS011;21192;40.182;44.516;2024-02-16T12:28:28;30.67;;;18.95;;
34988;SDS011;21192;40.182;44.516;2024-02-16T12:30:58;30.05;;;16.42;;
34988;SDS011;21192;40.182;44.516;2024-02-16T12:33:24;19.67;;;13.77;;
34988;SDS011;21192;40.182;44.516;2024-02-16T12:35:50;21.13;;;14.85;;
34988;SDS011;21192;40.182;44.516;2024-02-16T12:38:17;23.63;;;15.45;;
34988;SDS011;21192;40.182;44.516;2024-02-16T12:40:47;24.70;;;15.65;;
34988;SDS011;21192;40.182;44.516;2024-02-16T12:43:13;23.77;;;17.25;;
34988;SDS011;21192;40.182;44.516;2024-02-16T12:45:39;19.15;;;14.15;;
34988;SDS011;21192;40.182;44.516;2024-02-16T12:48:08;19.05;;;13.55;;
34988;SDS011;21192;40.182;44.516;2024-02-16T12:50:39;18.15;;;12.55;;
34988;SDS011;21192;40.182;44.516;2024-02-16T12:53:07;18.45;;;11.75;;
34988;SDS011;21192;40.182;44.516;2024-02-16T12:55:33;17.98;;;12.20;;
34988;SDS011;21192;40.182;44.516;2024-02-16T12:57:59;20.90;;;14.00;;
34988;SDS011;21192;40.182;44.516;2024-02-16T13:00:25;19.92;;;12.07;;
34988;SDS011;21192;40.182;44.516;2024-02-16T13:02:50;17.65;;;11.23;;
34988;SDS011;21192;40.182;44.516;2024-02-16T13:05:16;17.08;;;10.02;;
34988;SDS011;21192;40.182;44.516;2024-02-16T13:07:42;20.27;;;11.57;;
34988;SDS011;21192;40.182;44.516;2024-02-16T13:10:08;14.45;;;9.93;;
34988;SDS011;21192;40.182;44.516;2024-02-16T13:12:34;15.60;;;9.80;;
34988;SDS011;21192;40.182;44.516;2024-02-16T13:15:02;17.33;;;8.85;;
34988;SDS011;21192;40.182;44.516;2024-02-16T13:17:29;12.07;;;7.93;;
34988;SDS011;21192;40.182;44.516;2024-02-16T13:19:56;13.27;;;8.00;;
34988;SDS011;21192;40.182;44.516;2024-02-16T13:22:34;14.65;;;7.90;;
34988;SDS011;21192;40.182;44.516;2024-02-16T13:25:01;15.30;;;8.73;;
34988;SDS011;21192;40.182;44.516;2024-02-16T13:27:32;14.65;;;9.15;;
34988;SDS011;21192;40.182;44.516;2024-02-16T13:29:59;16.15;;;8.93;;
34988;SDS011;21192;40.182;44.516;2024-02-16T13:32:25;13.32;;;8.32;;
34988;SDS011;21192;40.182;44.516;2024-02-16T13:34:51;19.50;;;10.25;;
34988;SDS011;21192;40.182;44.516;2024-02-16T13:37:17;15.32;;;8.80;;
34988;SDS011;21192;40.182;44.516;2024-02-16T13:39:43;15.63;;;8.30;;
34988;SDS011;21192;40.182;44.516;2024-02-16T13:42:09;15.93;;;9.35;;
34988;SDS011;21192;40.182;44.516;2024-02-16T13:44:36;15.90;;;8.13;;
34988;SDS011;21192;40.182;44.516;2024-02-16T13:47:02;19.35;;;8.60;;
34988;SDS011;21192;40.182;44.516;2024-02-16T13:49:28;18.77;;;9.13;;
34988;SDS011;21192;40.182;44.516;2024-02-16T13:51:54;16.60;;;9.45;;
34988;SDS011;21192;40.182;44.516;2024-02-16T13:54:24;32.15;;;17.00;;
34988;SDS011;21192;40.182;44.516;2024-02-16T13:56:50;29.20;;;16.90;;
34988;SDS011;21192;40.182;44.516;2024-02-16T13:59:16;19.45;;;11.13;;
34988;SDS011;21192;40.182;44.516;2024-02-16T14:01:42;17.60;;;10.02;;
34988;SDS011;21192;40.182;44.516;2024-02-16T14:04:08;21.45;;;10.95;;
34988;SDS011;21192;40.182;44.516;2024-02-16T14:06:34;16.13;;;9.90;;
34988;SDS011;21192;40.182;44.516;2024-02-16T14:09:01;20.80;;;10.82;;